sensor_id;sensor_type;location;lat;lon;timestamp;pressure;altitude;pressure_sealevel;temperature;humidity
66703;BME280;60933;46.398;-63.798;2023-02-24T00:01:38;101843.56;;;-12.80;60.73
66703;BME280;60933;46.398;-63.798;2023-02-24T00:04:09;101844.13;;;-12.83;60.74
66703;BME280;60933;46.398;-63.798;2023-02-24T00:06:41;101842.53;;;-12.82;61.57
66703;BME280;60933;46.398;-63.798;2023-02-24T00:09:23;101857.59;;;-12.81;61.32
66703;BME280;60933;46.398;-63.798;2023-02-24T00:11:58;101853.97;;;-12.84;60.98
66703;BME280;60933;46.398;-63.798;2023-02-24T00:14:31;101856.72;;;-12.81;61.43
66703;BME280;60933;46.398;-63.798;2023-02-24T00:16:57;101851.00;;;-12.80;60.67
66703;BME280;60933;46.398;-63.798;2023-02-24T00:19:26;101842.66;;;-12.81;60.65
66703;BME280;60933;46.398;-63.798;2023-02-24T00:21:54;101819.25;;;-12.83;60.81
66703;BME280;60933;46.398;-63.798;2023-02-24T00:24:20;101809.59;;;-12.80;61.04
66703;BME280;60933;46.398;-63.798;2023-02-24T00:26:54;101828.63;;;-12.80;60.41
66703;BME280;60933;46.398;-63.798;2023-02-24T00:29:21;101834.47;;;-12.80;60.60
66703;BME280;60933;46.398;-63.798;2023-02-24T00:31:56;101823.91;;;-12.77;61.22
66703;BME280;60933;46.398;-63.798;2023-02-24T00:34:33;101830.28;;;-12.70;61.63
66703;BME280;60933;46.398;-63.798;2023-02-24T00:37:00;101799.53;;;-12.81;61.33
66703;BME280;60933;46.398;-63.798;2023-02-24T00:39:27;101820.88;;;-12.64;61.13
66703;BME280;60933;46.398;-63.798;2023-02-24T00:41:56;101824.72;;;-12.68;60.90
66703;BME280;60933;46.398;-63.798;2023-02-24T00:44:44;101833.63;;;-12.70;60.63
66703;BME280;60933;46.398;-63.798;2023-02-24T00:47:10;101853.81;;;-12.67;60.64
66703;BME280;60933;46.398;-63.798;2023-02-24T00:49:38;101850.06;;;-12.72;60.71
66703;BME280;60933;46.398;-63.798;2023-02-24T00:52:12;101853.69;;;-12.68;60.65
66703;BME280;60933;46.398;-63.798;2023-02-24T00:54:39;101836.66;;;-12.64;61.03
66703;BME280;60933;46.398;-63.798;2023-02-24T00:57:06;101838.56;;;-12.61;61.09
66703;BME280;60933;46.398;-63.798;2023-02-24T00:59:35;101832.97;;;-12.59;60.90
66703;BME280;60933;46.398;-63.798;2023-02-24T01:02:05;101804.72;;;-12.59;61.26
66703;BME280;60933;46.398;-63.798;2023-02-24T01:04:35;101792.44;;;-12.58;60.61
66703;BME280;60933;46.398;-63.798;2023-02-24T01:07:05;101793.00;;;-12.60;60.64
66703;BME280;60933;46.398;-63.798;2023-02-24T01:09:35;101787.91;;;-12.62;60.21
66703;BME280;60933;46.398;-63.798;2023-02-24T01:12:02;101788.41;;;-12.66;60.43
66703;BME280;60933;46.398;-63.798;2023-02-24T01:14:48;101781.69;;;-12.67;60.24
66703;BME280;60933;46.398;-63.798;2023-02-24T01:17:21;101774.97;;;-12.68;60.57
66703;BME280;60933;46.398;-63.798;2023-02-24T01:19:48;101766.75;;;-12.67;60.76
66703;BME280;60933;46.398;-63.798;2023-02-24T01:22:16;101749.69;;;-12.73;60.60
66703;BME280;60933;46.398;-63.798;2023-02-24T01:24:43;101749.47;;;-12.65;60.97
66703;BME280;60933;46.398;-63.798;2023-02-24T01:27:12;101743.63;;;-12.66;61.15
66703;BME280;60933;46.398;-63.798;2023-02-24T01:29:39;101741.00;;;-12.67;60.17
66703;BME280;60933;46.398;-63.798;2023-02-24T01:32:15;101733.19;;;-12.72;59.95
66703;BME280;60933;46.398;-63.798;2023-02-24T01:34:41;101747.81;;;-12.75;59.79
66703;BME280;60933;46.398;-63.798;2023-02-24T01:37:08;101750.03;;;-12.78;60.07
66703;BME280;60933;46.398;-63.798;2023-02-24T01:39:34;101759.34;;;-12.86;59.28
66703;BME280;60933;46.398;-63.798;2023-02-24T01:42:03;101775.13;;;-12.85;59.11
66703;BME280;60933;46.398;-63.798;2023-02-24T01:46:58;101771.66;;;-12.87;59.33
66703;BME280;60933;46.398;-63.798;2023-02-24T01:49:38;101781.59;;;-12.87;59.47
66703;BME280;60933;46.398;-63.798;2023-02-24T01:52:12;101793.25;;;-12.86;59.57
66703;BME280;60933;46.398;-63.798;2023-02-24T01:54:53;101793.88;;;-12.89;59.24
66703;BME280;60933;46.398;-63.798;2023-02-24T01:57:23;101810.22;;;-12.82;59.67
66703;BME280;60933;46.398;-63.798;2023-02-24T01:59:52;101816.94;;;-12.81;60.21
66703;BME280;60933;46.398;-63.798;2023-02-24T02:02:20;101804.50;;;-12.81;60.33
66703;BME280;60933;46.398;-63.798;2023-02-24T02:04:53;101804.00;;;-12.77;60.26
66703;BME280;60933;46.398;-63.798;2023-02-24T02:07:23;101805.03;;;-12.75;60.49
66703;BME280;60933;46.398;-63.798;2023-02-24T02:09:51;101806.66;;;-12.76;60.35
66703;BME280;60933;46.398;-63.798;2023-02-24T02:12:21;101804.00;;;-12.77;60.59
66703;BME280;60933;46.398;-63.798;2023-02-24T02:14:50;101797.38;;;-12.87;59.87
66703;BME280;60933;46.398;-63.798;2023-02-24T02:23:25;101781.63;;;-12.77;60.93
66703;BME280;60933;46.398;-63.798;2023-02-24T02:31:51;101803.28;;;-12.76;61.01
66703;BME280;60933;46.398;-63.798;2023-02-24T02:34:41;101805.75;;;-12.76;61.20
66703;BME280;60933;46.398;-63.798;2023-02-24T02:37:17;101813.22;;;-12.76;61.33
66703;BME280;60933;46.398;-63.798;2023-02-24T02:40:23;101817.75;;;-12.72;61.33
66703;BME280;60933;46.398;-63.798;2023-02-24T02:42:56;101834.38;;;-12.71;61.28
66703;BME280;60933;46.398;-63.798;2023-02-24T02:48:26;101843.59;;;-12.70;61.25
66703;BME280;60933;46.398;-63.798;2023-02-24T02:51:09;101841.84;;;-12.71;61.07
66703;BME280;60933;46.398;-63.798;2023-02-24T02:59:31;101851.94;;;-12.69;61.08
66703;BME280;60933;46.398;-63.798;2023-02-24T03:02:03;101853.09;;;-12.66;61.63
66703;BME280;60933;46.398;-63.798;2023-02-24T03:04:50;101860.06;;;-12.62;61.84
66703;BME280;60933;46.398;-63.798;2023-02-24T03:07:20;101860.94;;;-12.61;61.21
66703;BME280;60933;46.398;-63.798;2023-02-24T03:09:54;101855.09;;;-12.62;60.56
66703;BME280;60933;46.398;-63.798;2023-02-24T03:12:23;101854.34;;;-12.61;60.71
66703;BME280;60933;46.398;-63.798;2023-02-24T03:14:57;101857.84;;;-12.59;60.79
66703;BME280;60933;46.398;-63.798;2023-02-24T03:17:26;101852.13;;;-12.58;61.03
66703;BME280;60933;46.398;-63.798;2023-02-24T03:20:00;101833.72;;;-12.60;60.99
66703;BME280;60933;46.398;-63.798;2023-02-24T03:23:16;101836.47;;;-12.57;60.56
66703;BME280;60933;46.398;-63.798;2023-02-24T03:25:52;101813.19;;;-12.57;60.67
66703;BME280;60933;46.398;-63.798;2023-02-24T03:28:29;101807.34;;;-12.58;60.19
66703;BME280;60933;46.398;-63.798;2023-02-24T03:31:22;101808.50;;;-12.54;60.34
66703;BME280;60933;46.398;-63.798;2023-02-24T03:36:59;101780.38;;;-12.53;61.32
66703;BME280;60933;46.398;-63.798;2023-02-24T03:39:26;101769.53;;;-12.53;60.88
66703;BME280;60933;46.398;-63.798;2023-02-24T03:42:13;101751.91;;;-12.57;61.36
66703;BME280;60933;46.398;-63.798;2023-02-24T03:44:41;101768.41;;;-12.57;61.75
66703;BME280;60933;46.398;-63.798;2023-02-24T03:47:08;101767.19;;;-12.52;62.20
66703;BME280;60933;46.398;-63.798;2023-02-24T03:49:34;101773.28;;;-12.48;62.11
66703;BME280;60933;46.398;-63.798;2023-02-24T03:52:39;101769.09;;;-12.49;61.41
66703;BME280;60933;46.398;-63.798;2023-02-24T03:55:29;101786.50;;;-12.49;61.58
66703;BME280;60933;46.398;-63.798;2023-02-24T03:58:07;101787.97;;;-12.51;62.02
66703;BME280;60933;46.398;-63.798;2023-02-24T04:03:25;101801.94;;;-12.43;62.21
66703;BME280;60933;46.398;-63.798;2023-02-24T04:06:07;101793.47;;;-12.45;62.17
66703;BME280;60933;46.398;-63.798;2023-02-24T04:08:49;101803.06;;;-12.39;61.84
66703;BME280;60933;46.398;-63.798;2023-02-24T04:11:25;101799.56;;;-12.42;61.84
66703;BME280;60933;46.398;-63.798;2023-02-24T04:14:00;101817.13;;;-12.40;61.37
66703;BME280;60933;46.398;-63.798;2023-02-24T04:16:37;101807.16;;;-12.40;61.88
66703;BME280;60933;46.398;-63.798;2023-02-24T04:19:15;101807.44;;;-12.37;61.82
66703;BME280;60933;46.398;-63.798;2023-02-24T04:21:44;101818.25;;;-12.36;61.64
66703;BME280;60933;46.398;-63.798;2023-02-24T04:24:14;101819.13;;;-12.36;61.73
66703;BME280;60933;46.398;-63.798;2023-02-24T04:26:44;101819.38;;;-12.33;61.87
66703;BME280;60933;46.398;-63.798;2023-02-24T04:29:16;101819.38;;;-12.33;61.67
66703;BME280;60933;46.398;-63.798;2023-02-24T04:31:52;101822.13;;;-12.30;61.70
66703;BME280;60933;46.398;-63.798;2023-02-24T04:34:19;101816.16;;;-12.32;61.59
66703;BME280;60933;46.398;-63.798;2023-02-24T04:36:46;101801.97;;;-12.33;61.51
66703;BME280;60933;46.398;-63.798;2023-02-24T04:39:23;101785.44;;;-12.32;61.64
66703;BME280;60933;46.398;-63.798;2023-02-24T04:41:49;101783.06;;;-12.31;61.98
66703;BME280;60933;46.398;-63.798;2023-02-24T04:44:16;101788.03;;;-12.31;61.58
66703;BME280;60933;46.398;-63.798;2023-02-24T04:46:44;101784.81;;;-12.30;61.90
66703;BME280;60933;46.398;-63.798;2023-02-24T04:49:11;101767.00;;;-12.34;61.34
66703;BME280;60933;46.398;-63.798;2023-02-24T04:51:38;101778.59;;;-12.35;61.51
66703;BME280;60933;46.398;-63.798;2023-02-24T04:54:08;101778.69;;;-12.33;61.56
66703;BME280;60933;46.398;-63.798;2023-02-24T04:56:35;101766.13;;;-12.35;61.29
66703;BME280;60933;46.398;-63.798;2023-02-24T04:59:02;101766.53;;;-12.30;61.89
66703;BME280;60933;46.398;-63.798;2023-02-24T05:01:28;101761.66;;;-12.29;61.95
66703;BME280;60933;46.398;-63.798;2023-02-24T05:03:55;101737.03;;;-12.26;61.89
66703;BME280;60933;46.398;-63.798;2023-02-24T05:06:21;101754.44;;;-12.26;61.96
66703;BME280;60933;46.398;-63.798;2023-02-24T05:08:48;101750.22;;;-12.27;61.72
66703;BME280;60933;46.398;-63.798;2023-02-24T05:11:17;101755.22;;;-12.27;61.53
66703;BME280;60933;46.398;-63.798;2023-02-24T05:13:44;101760.94;;;-12.28;62.02
66703;BME280;60933;46.398;-63.798;2023-02-24T05:16:11;101760.94;;;-12.28;62.46
66703;BME280;60933;46.398;-63.798;2023-02-24T05:18:40;101763.41;;;-12.28;62.35
66703;BME280;60933;46.398;-63.798;2023-02-24T05:21:14;101773.63;;;-12.25;62.39
66703;BME280;60933;46.398;-63.798;2023-02-24T05:23:59;101773.88;;;-12.21;62.57
66703;BME280;60933;46.398;-63.798;2023-02-24T05:26:32;101766.28;;;-12.23;62.79
66703;BME280;60933;46.398;-63.798;2023-02-24T05:29:01;101761.16;;;-12.25;63.92
66703;BME280;60933;46.398;-63.798;2023-02-24T05:31:29;101767.28;;;-12.21;63.83
66703;BME280;60933;46.398;-63.798;2023-02-24T05:34:06;101777.38;;;-12.19;63.71
66703;BME280;60933;46.398;-63.798;2023-02-24T05:36:37;101753.84;;;-12.23;64.54
66703;BME280;60933;46.398;-63.798;2023-02-24T05:39:05;101761.91;;;-12.26;65.06
66703;BME280;60933;46.398;-63.798;2023-02-24T05:41:34;101765.28;;;-12.25;65.29
66703;BME280;60933;46.398;-63.798;2023-02-24T05:44:05;101779.31;;;-12.26;65.66
66703;BME280;60933;46.398;-63.798;2023-02-24T05:46:37;101767.50;;;-12.28;65.88
66703;BME280;60933;46.398;-63.798;2023-02-24T05:49:12;101777.63;;;-12.27;66.21
66703;BME280;60933;46.398;-63.798;2023-02-24T05:51:39;101779.09;;;-12.29;66.40
66703;BME280;60933;46.398;-63.798;2023-02-24T05:54:11;101783.94;;;-12.30;66.12
66703;BME280;60933;46.398;-63.798;2023-02-24T05:56:39;101779.09;;;-12.29;66.27
66703;BME280;60933;46.398;-63.798;2023-02-24T05:59:09;101776.94;;;-12.34;66.54
66703;BME280;60933;46.398;-63.798;2023-02-24T06:01:38;101773.44;;;-12.36;66.94
66703;BME280;60933;46.398;-63.798;2023-02-24T06:04:10;101773.06;;;-12.41;67.03
66703;BME280;60933;46.398;-63.798;2023-02-24T06:06:47;101787.25;;;-12.40;67.39
66703;BME280;60933;46.398;-63.798;2023-02-24T06:09:19;101767.09;;;-12.43;67.25
66703;BME280;60933;46.398;-63.798;2023-02-24T06:11:48;101763.09;;;-12.41;67.58
66703;BME280;60933;46.398;-63.798;2023-02-24T06:14:15;101746.94;;;-12.46;67.58
66703;BME280;60933;46.398;-63.798;2023-02-24T06:16:41;101722.66;;;-12.49;67.86
66703;BME280;60933;46.398;-63.798;2023-02-24T06:19:11;101701.63;;;-12.52;68.25
66703;BME280;60933;46.398;-63.798;2023-02-24T06:21:40;101684.56;;;-12.58;68.63
66703;BME280;60933;46.398;-63.798;2023-02-24T06:24:11;101668.06;;;-12.58;68.94
66703;BME280;60933;46.398;-63.798;2023-02-24T06:26:41;101644.53;;;-12.61;69.27
66703;BME280;60933;46.398;-63.798;2023-02-24T06:29:15;101638.69;;;-12.62;69.44
66703;BME280;60933;46.398;-63.798;2023-02-24T06:31:42;101636.19;;;-12.62;69.66
66703;BME280;60933;46.398;-63.798;2023-02-24T06:34:12;101638.69;;;-12.62;69.58
66703;BME280;60933;46.398;-63.798;2023-02-24T06:36:42;101643.78;;;-12.60;69.89
66703;BME280;60933;46.398;-63.798;2023-02-24T06:39:09;101641.91;;;-12.63;69.85
66703;BME280;60933;46.398;-63.798;2023-02-24T06:41:39;101643.25;;;-12.66;69.96
66703;BME280;60933;46.398;-63.798;2023-02-24T06:44:07;101644.91;;;-12.67;70.11
66703;BME280;60933;46.398;-63.798;2023-02-24T06:46:34;101645.91;;;-12.65;69.90
66703;BME280;60933;46.398;-63.798;2023-02-24T06:49:00;101648.25;;;-12.66;69.93
66703;BME280;60933;46.398;-63.798;2023-02-24T06:51:27;101664.06;;;-12.66;69.90
66703;BME280;60933;46.398;-63.798;2023-02-24T06:53:57;101673.25;;;-12.65;69.66
66703;BME280;60933;46.398;-63.798;2023-02-24T06:56:25;101672.25;;;-12.67;69.99
66703;BME280;60933;46.398;-63.798;2023-02-24T06:58:53;101665.81;;;-12.65;70.29
66703;BME280;60933;46.398;-63.798;2023-02-24T07:01:24;101659.06;;;-12.66;70.11
66703;BME280;60933;46.398;-63.798;2023-02-24T07:03:55;101632.47;;;-12.67;70.09
66703;BME280;60933;46.398;-63.798;2023-02-24T07:07:02;101632.69;;;-12.64;70.32
66703;BME280;60933;46.398;-63.798;2023-02-24T07:09:28;101614.31;;;-12.66;70.56
66703;BME280;60933;46.398;-63.798;2023-02-24T07:11:55;101607.97;;;-12.62;70.46
66703;BME280;60933;46.398;-63.798;2023-02-24T07:14:22;101589.66;;;-12.63;70.36
66703;BME280;60933;46.398;-63.798;2023-02-24T07:16:48;101602.25;;;-12.61;70.66
66703;BME280;60933;46.398;-63.798;2023-02-24T07:19:20;101601.38;;;-12.62;70.58
66703;BME280;60933;46.398;-63.798;2023-02-24T07:21:47;101598.03;;;-12.62;70.78
66703;BME280;60933;46.398;-63.798;2023-02-24T07:24:25;101593.91;;;-12.62;70.56
66703;BME280;60933;46.398;-63.798;2023-02-24T07:27:09;101598.75;;;-12.63;70.80
66703;BME280;60933;46.398;-63.798;2023-02-24T07:29:36;101585.44;;;-12.64;70.88
66703;BME280;60933;46.398;-63.798;2023-02-24T07:32:05;101590.56;;;-12.62;70.94
66703;BME280;60933;46.398;-63.798;2023-02-24T07:34:33;101583.72;;;-12.65;71.10
66703;BME280;60933;46.398;-63.798;2023-02-24T07:37:01;101577.97;;;-12.64;71.11
66703;BME280;60933;46.398;-63.798;2023-02-24T07:39:33;101568.81;;;-12.65;71.37
66703;BME280;60933;46.398;-63.798;2023-02-24T07:41:59;101580.47;;;-12.64;71.46
66703;BME280;60933;46.398;-63.798;2023-02-24T07:44:25;101580.34;;;-12.65;71.62
66703;BME280;60933;46.398;-63.798;2023-02-24T07:46:53;101583.72;;;-12.65;71.57
66703;BME280;60933;46.398;-63.798;2023-02-24T07:49:22;101582.94;;;-12.64;71.58
66703;BME280;60933;46.398;-63.798;2023-02-24T07:51:54;101601.38;;;-12.62;71.83
66703;BME280;60933;46.398;-63.798;2023-02-24T07:54:23;101598.75;;;-12.63;71.90
66703;BME280;60933;46.398;-63.798;2023-02-24T07:56:50;101598.88;;;-12.62;71.99
66703;BME280;60933;46.398;-63.798;2023-02-24T07:59:25;101596.66;;;-12.59;72.23
66703;BME280;60933;46.398;-63.798;2023-02-24T08:01:52;101601.63;;;-12.59;71.80
66703;BME280;60933;46.398;-63.798;2023-02-24T08:04:28;101598.13;;;-12.61;72.27
66703;BME280;60933;46.398;-63.798;2023-02-24T08:06:55;101593.03;;;-12.62;72.48
66703;BME280;60933;46.398;-63.798;2023-02-24T08:09:26;101599.63;;;-12.63;72.27
66703;BME280;60933;46.398;-63.798;2023-02-24T08:12:15;101597.88;;;-12.64;72.43
66703;BME280;60933;46.398;-63.798;2023-02-24T08:14:43;101587.44;;;-12.70;72.82
66703;BME280;60933;46.398;-63.798;2023-02-24T08:17:16;101581.47;;;-12.72;72.82
66703;BME280;60933;46.398;-63.798;2023-02-24T08:19:48;101579.00;;;-12.72;72.77
66703;BME280;60933;46.398;-63.798;2023-02-24T08:22:16;101582.22;;;-12.73;72.91
66703;BME280;60933;46.398;-63.798;2023-02-24T08:24:56;101578.09;;;-12.73;72.99
66703;BME280;60933;46.398;-63.798;2023-02-24T08:27:27;101582.22;;;-12.73;73.21
66703;BME280;60933;46.398;-63.798;2023-02-24T08:29:57;101588.66;;;-12.75;73.48
66703;BME280;60933;46.398;-63.798;2023-02-24T08:32:33;101580.19;;;-12.77;73.52
66703;BME280;60933;46.398;-63.798;2023-02-24T08:35:12;101574.50;;;-12.76;73.66
66703;BME280;60933;46.398;-63.798;2023-02-24T08:37:53;101583.97;;;-12.72;73.70
66703;BME280;60933;46.398;-63.798;2023-02-24T08:40:28;101588.03;;;-12.73;73.83
66703;BME280;60933;46.398;-63.798;2023-02-24T08:45:47;101588.78;;;-12.74;73.67
66703;BME280;60933;46.398;-63.798;2023-02-24T08:48:19;101584.56;;;-12.75;73.60
66703;BME280;60933;46.398;-63.798;2023-02-24T08:50:53;101570.41;;;-12.76;73.89
66703;BME280;60933;46.398;-63.798;2023-02-24T08:53:20;101561.19;;;-12.77;73.76
66703;BME280;60933;46.398;-63.798;2023-02-24T08:55:47;101557.81;;;-12.77;74.11
66703;BME280;60933;46.398;-63.798;2023-02-24T08:58:20;101544.53;;;-12.78;74.02
66703;BME280;60933;46.398;-63.798;2023-02-24T09:00:56;101542.16;;;-12.76;74.24
66703;BME280;60933;46.398;-63.798;2023-02-24T09:03:28;101546.28;;;-12.77;74.46
66703;BME280;60933;46.398;-63.798;2023-02-24T09:06:06;101534.44;;;-12.79;74.37
66703;BME280;60933;46.398;-63.798;2023-02-24T09:08:38;101540.41;;;-12.77;74.93
66703;BME280;60933;46.398;-63.798;2023-02-24T09:11:23;101535.72;;;-12.74;74.90
66703;BME280;60933;46.398;-63.798;2023-02-24T09:13:49;101526.38;;;-12.77;74.65
66703;BME280;60933;46.398;-63.798;2023-02-24T09:16:21;101530.25;;;-12.80;75.08
66703;BME280;60933;46.398;-63.798;2023-02-24T09:18:49;101529.34;;;-12.81;75.18
66703;BME280;60933;46.398;-63.798;2023-02-24T09:21:34;101515.06;;;-12.83;75.45
66703;BME280;60933;46.398;-63.798;2023-02-24T09:24:16;101527.75;;;-12.80;75.80
66703;BME280;60933;46.398;-63.798;2023-02-24T09:26:52;101523.53;;;-12.81;75.77
66703;BME280;60933;46.398;-63.798;2023-02-24T09:29:24;101526.88;;;-12.81;75.90
66703;BME280;60933;46.398;-63.798;2023-02-24T09:32:01;101524.16;;;-12.84;75.73
66703;BME280;60933;46.398;-63.798;2023-02-24T09:34:33;101534.94;;;-12.83;76.03
66703;BME280;60933;46.398;-63.798;2023-02-24T09:37:00;101525.13;;;-12.82;76.04
66703;BME280;60933;46.398;-63.798;2023-02-24T09:39:29;101523.25;;;-12.84;76.12
66703;BME280;60933;46.398;-63.798;2023-02-24T09:41:57;101539.28;;;-12.81;76.22
66703;BME280;60933;46.398;-63.798;2023-02-24T09:44:44;101545.16;;;-12.80;76.49
66703;BME280;60933;46.398;-63.798;2023-02-24T09:52:49;101557.81;;;-12.77;76.87
66703;BME280;60933;46.398;-63.798;2023-02-24T09:55:37;101558.56;;;-12.78;76.86
66703;BME280;60933;46.398;-63.798;2023-02-24T10:06:42;101552.63;;;-12.80;77.25
66703;BME280;60933;46.398;-63.798;2023-02-24T10:14:54;101527.59;;;-12.82;77.57
66703;BME280;60933;46.398;-63.798;2023-02-24T10:17:41;101536.44;;;-12.75;77.82
66703;BME280;60933;46.398;-63.798;2023-02-24T10:20:19;101526.22;;;-12.78;77.66
66703;BME280;60933;46.398;-63.798;2023-02-24T10:23:36;101533.22;;;-12.74;77.79
66703;BME280;60933;46.398;-63.798;2023-02-24T10:26:51;101532.22;;;-12.76;77.93
66703;BME280;60933;46.398;-63.798;2023-02-24T10:34:56;101527.88;;;-12.79;78.66
66703;BME280;60933;46.398;-63.798;2023-02-24T10:37:23;101528.72;;;-12.78;79.03
66703;BME280;60933;46.398;-63.798;2023-02-24T10:39:58;101522.28;;;-12.76;78.82
66703;BME280;60933;46.398;-63.798;2023-02-24T10:42:27;101527.34;;;-12.75;79.14
66703;BME280;60933;46.398;-63.798;2023-02-24T10:45:13;101515.81;;;-12.74;79.02
66703;BME280;60933;46.398;-63.798;2023-02-24T10:47:43;101516.81;;;-12.72;79.48
66703;BME280;60933;46.398;-63.798;2023-02-24T10:52:47;101502.88;;;-12.70;80.08
66703;BME280;60933;46.398;-63.798;2023-02-24T10:55:45;101514.81;;;-12.66;80.41
66703;BME280;60933;46.398;-63.798;2023-02-24T11:00:57;101508.47;;;-12.62;80.80
66703;BME280;60933;46.398;-63.798;2023-02-24T11:03:32;101508.59;;;-12.61;80.90
66703;BME280;60933;46.398;-63.798;2023-02-24T11:06:17;101497.91;;;-12.60;81.40
66703;BME280;60933;46.398;-63.798;2023-02-24T11:09:18;101495.69;;;-12.57;81.42
66703;BME280;60933;46.398;-63.798;2023-02-24T11:12:12;101504.84;;;-12.55;81.60
66703;BME280;60933;46.398;-63.798;2023-02-24T11:15:02;101506.75;;;-12.53;81.70
66703;BME280;60933;46.398;-63.798;2023-02-24T11:17:54;101502.09;;;-12.48;81.73
66703;BME280;60933;46.398;-63.798;2023-02-24T11:20:37;101508.81;;;-12.47;81.57
66703;BME280;60933;46.398;-63.798;2023-02-24T11:23:10;101503.09;;;-12.46;81.54
66703;BME280;60933;46.398;-63.798;2023-02-24T11:25:40;101514.69;;;-12.47;81.39
66703;BME280;60933;46.398;-63.798;2023-02-24T11:28:41;101508.97;;;-12.46;81.30
66703;BME280;60933;46.398;-63.798;2023-02-24T11:31:24;101513.44;;;-12.42;81.20
66703;BME280;60933;46.398;-63.798;2023-02-24T11:40:24;101514.28;;;-12.31;81.03
66703;BME280;60933;46.398;-63.798;2023-02-24T11:43:04;101523.59;;;-12.28;80.85
66703;BME280;60933;46.398;-63.798;2023-02-24T11:48:39;101520.25;;;-12.18;80.57
66703;BME280;60933;46.398;-63.798;2023-02-24T11:51:23;101515.75;;;-12.12;80.60
66703;BME280;60933;46.398;-63.798;2023-02-24T11:54:15;101519.38;;;-12.08;80.64
66703;BME280;60933;46.398;-63.798;2023-02-24T11:56:55;101525.56;;;-12.03;80.64
66703;BME280;60933;46.398;-63.798;2023-02-24T11:59:38;101508.50;;;-11.99;80.61
66703;BME280;60933;46.398;-63.798;2023-02-24T12:02:18;101520.53;;;-11.93;80.07
66703;BME280;60933;46.398;-63.798;2023-02-24T12:05:04;101523.13;;;-11.91;80.29
66703;BME280;60933;46.398;-63.798;2023-02-24T12:07:44;101509.19;;;-11.89;80.21
66703;BME280;60933;46.398;-63.798;2023-02-24T12:10:35;101515.66;;;-11.81;80.22
66703;BME280;60933;46.398;-63.798;2023-02-24T12:15:54;101501.16;;;-11.65;79.95
66703;BME280;60933;46.398;-63.798;2023-02-24T12:20:48;101510.94;;;-11.56;79.75
66703;BME280;60933;46.398;-63.798;2023-02-24T12:23:22;101505.84;;;-11.57;79.71
66703;BME280;60933;46.398;-63.798;2023-02-24T12:26:15;101503.81;;;-11.51;79.38
66703;BME280;60933;46.398;-63.798;2023-02-24T12:29:02;101492.16;;;-11.40;79.21
66703;BME280;60933;46.398;-63.798;2023-02-24T12:43:17;101496.69;;;-11.02;77.80
66703;BME280;60933;46.398;-63.798;2023-02-24T12:48:57;101497.63;;;-10.78;77.24
66703;BME280;60933;46.398;-63.798;2023-02-24T12:51:46;101499.94;;;-10.69;76.69
66703;BME280;60933;46.398;-63.798;2023-02-24T12:54:25;101497.47;;;-10.57;76.53
66703;BME280;60933;46.398;-63.798;2023-02-24T12:57:02;101493.13;;;-10.48;76.21
66703;BME280;60933;46.398;-63.798;2023-02-24T12:59:38;101486.72;;;-10.32;75.52
66703;BME280;60933;46.398;-63.798;2023-02-24T13:05:29;101487.28;;;-10.13;75.14
66703;BME280;60933;46.398;-63.798;2023-02-24T13:08:05;101489.44;;;-10.06;74.04
66703;BME280;60933;46.398;-63.798;2023-02-24T13:13:46;101483.47;;;-10.20;73.58
66703;BME280;60933;46.398;-63.798;2023-02-24T13:16:31;101480.09;;;-10.20;73.72
66703;BME280;60933;46.398;-63.798;2023-02-24T13:19:28;101481.72;;;-10.09;74.19
66703;BME280;60933;46.398;-63.798;2023-02-24T13:22:04;101480.88;;;-9.97;73.31
66703;BME280;60933;46.398;-63.798;2023-02-24T13:24:31;101482.47;;;-9.86;73.99
66703;BME280;60933;46.398;-63.798;2023-02-24T13:29:56;101480.50;;;-9.66;73.46
66703;BME280;60933;46.398;-63.798;2023-02-24T13:32:35;101482.66;;;-9.59;73.21
66703;BME280;60933;46.398;-63.798;2023-02-24T13:37:52;101477.78;;;-9.32;72.06
66703;BME280;60933;46.398;-63.798;2023-02-24T13:45:25;101469.16;;;-9.24;71.18
66703;BME280;60933;46.398;-63.798;2023-02-24T13:53:42;101472.16;;;-8.52;70.43
66703;BME280;60933;46.398;-63.798;2023-02-24T13:59:15;101471.69;;;-8.47;69.12
66703;BME280;60933;46.398;-63.798;2023-02-24T14:01:46;101467.94;;;-8.40;68.26
66703;BME280;60933;46.398;-63.798;2023-02-24T14:04:25;101473.13;;;-8.50;67.54
66703;BME280;60933;46.398;-63.798;2023-02-24T14:06:55;101466.75;;;-8.59;67.49
66703;BME280;60933;46.398;-63.798;2023-02-24T14:09:33;101477.06;;;-8.54;67.69
66703;BME280;60933;46.398;-63.798;2023-02-24T14:12:24;101465.59;;;-8.37;67.98
66703;BME280;60933;46.398;-63.798;2023-02-24T14:14:51;101476.31;;;-8.13;66.85
66703;BME280;60933;46.398;-63.798;2023-02-24T14:19:54;101474.78;;;-7.97;65.70
66703;BME280;60933;46.398;-63.798;2023-02-24T14:22:24;101482.06;;;-7.87;65.06
66703;BME280;60933;46.398;-63.798;2023-02-24T14:25:02;101491.34;;;-7.99;63.75
66703;BME280;60933;46.398;-63.798;2023-02-24T14:27:28;101487.09;;;-8.27;63.84
66703;BME280;60933;46.398;-63.798;2023-02-24T14:29:54;101485.88;;;-8.47;64.34
66703;BME280;60933;46.398;-63.798;2023-02-24T14:32:25;101484.97;;;-8.61;65.20
66703;BME280;60933;46.398;-63.798;2023-02-24T14:34:53;101477.63;;;-8.58;64.97
66703;BME280;60933;46.398;-63.798;2023-02-24T14:37:25;101480.16;;;-8.45;66.21
66703;BME280;60933;46.398;-63.798;2023-02-24T14:39:58;101483.63;;;-8.16;66.70
66703;BME280;60933;46.398;-63.798;2023-02-24T14:42:26;101482.38;;;-8.22;65.20
66703;BME280;60933;46.398;-63.798;2023-02-24T14:44:56;101480.34;;;-8.15;66.74
66703;BME280;60933;46.398;-63.798;2023-02-24T14:47:26;101479.97;;;-7.94;66.52
66703;BME280;60933;46.398;-63.798;2023-02-24T14:49:56;101485.31;;;-7.61;66.36
66703;BME280;60933;46.398;-63.798;2023-02-24T15:00:36;101489.31;;;-7.78;67.57
66703;BME280;60933;46.398;-63.798;2023-02-24T15:03:27;101488.03;;;-7.71;66.86